Christopher Myskowski — WDG8768 — position and weather

sailwx.info

Track history (hours):
 
Tides and Currents Weather Stations Pressure Air Temp Water Temp Dewpoint Dewpoint Depression Visibility Wind Speed Wind Dir Waves Ship Positions

Christopher Myskowski

Owner: Marquette Transportation Co. LLC, Paducah, KY. More information available from US FCC via Universal Licensing System and Coast Guard Vessel Documentation Center.

Last reported at 2017-Sep-27 08:56 UTC. Time now 2017-Nov-18 06:58 UTC.
Position N 38°54' W 090°13'.
Warning: this ship's position is 51 days out of date.

Length 45 m; draft 2.7 m.

Type: Towing. MMSI: 367580880.

Date/timePositionNaut miles runAvg speedWind from/ knotsBaromVisibWave heightAir tempDewpointWater temp
2017-Sep-27 08:56N 38°54' W 090°13'2 0.4
2017-Sep-27 04:40N 38°55' W 090°15'0 0.3
2017-Sep-27 04:30N 38°55' W 090°14'2 4.8
2017-Sep-27 04:00N 38°55' W 090°18'3 6.6
2017-Sep-27 03:30N 38°57' W 090°21'3 6.8
2017-Sep-27 03:00N 38°58' W 090°26'3 6.3
2017-Sep-27 02:31N 38°56' W 090°29'4 6.6
2017-Sep-27 01:56N 38°53' W 090°32'  
2017-Sep-19 02:02N 38°52' W 090°33'0 7.4
2017-Sep-19 02:00N 38°52' W 090°33'3 1.9
2017-Sep-19 00:19N 38°55' W 090°31'2 6.0
2017-Sep-19 00:00N 38°56' W 090°29'3 6.9
2017-Sep-18 23:30N 38°58' W 090°25'4 8.2
2017-Sep-18 23:00N 38°56' W 090°20'6 8.3
2017-Sep-18 22:15N 38°54' W 090°13'  
Track history (hours):
 
Tides and Currents Weather Stations Pressure Air Temp Water Temp Dewpoint Dewpoint Depression Visibility Wind Speed Wind Dir Waves Ship Positions

Christopher Myskowski

Owner: Marquette Transportation Co. LLC, Paducah, KY. More information available from US FCC via Universal Licensing System and Coast Guard Vessel Documentation Center.

Last reported at 2017-Sep-27 08:56 UTC. Time now 2017-Nov-18 06:58 UTC.
Position N 38°54' W 090°13'.
Warning: this ship's position is 51 days out of date.

Length 45 m; draft 2.7 m.

Type: Towing. MMSI: 367580880.

Date/timePositionNaut miles runAvg speedWind from/ knotsBaromVisibWave heightAir tempDewpointWater temp
2017-Sep-27 08:56N 38°54' W 090°13'2 0.4
2017-Sep-27 04:40N 38°55' W 090°15'0 0.3
2017-Sep-27 04:30N 38°55' W 090°14'2 4.8
2017-Sep-27 04:00N 38°55' W 090°18'3 6.6
2017-Sep-27 03:30N 38°57' W 090°21'3 6.8
2017-Sep-27 03:00N 38°58' W 090°26'3 6.3
2017-Sep-27 02:31N 38°56' W 090°29'4 6.6
2017-Sep-27 01:56N 38°53' W 090°32'  
2017-Sep-19 02:02N 38°52' W 090°33'0 7.4
2017-Sep-19 02:00N 38°52' W 090°33'3 1.9
2017-Sep-19 00:19N 38°55' W 090°31'2 6.0
2017-Sep-19 00:00N 38°56' W 090°29'3 6.9
2017-Sep-18 23:30N 38°58' W 090°25'4 8.2
2017-Sep-18 23:00N 38°56' W 090°20'6 8.3
2017-Sep-18 22:15N 38°54' W 090°13'  

Dump ship's entire track history